sensor_id;sensor_type;location;lat;lon;timestamp;temperature;humidity
11650;DHT22;5881;48.522;7.682;2023-04-06T00:01:39;1.40;1.00
11650;DHT22;5881;48.522;7.682;2023-04-06T00:04:05;1.40;1.00
11650;DHT22;5881;48.522;7.682;2023-04-06T00:06:31;1.40;1.00
11650;DHT22;5881;48.522;7.682;2023-04-06T00:08:58;1.50;1.00
11650;DHT22;5881;48.522;7.682;2023-04-06T00:11:23;1.50;1.00
11650;DHT22;5881;48.522;7.682;2023-04-06T00:13:50;1.70;1.00
11650;DHT22;5881;48.522;7.682;2023-04-06T00:16:15;1.70;1.00
11650;DHT22;5881;48.522;7.682;2023-04-06T00:18:41;1.40;1.00
11650;DHT22;5881;48.522;7.682;2023-04-06T00:21:07;1.40;1.00
11650;DHT22;5881;48.522;7.682;2023-04-06T00:23:32;1.40;1.00
11650;DHT22;5881;48.522;7.682;2023-04-06T00:25:58;1.40;1.00
11650;DHT22;5881;48.522;7.682;2023-04-06T00:28:23;1.40;1.00
11650;DHT22;5881;48.522;7.682;2023-04-06T00:30:52;1.30;1.00
11650;DHT22;5881;48.522;7.682;2023-04-06T00:33:19;1.40;1.00
11650;DHT22;5881;48.522;7.682;2023-04-06T00:35:45;1.50;1.00
11650;DHT22;5881;48.522;7.682;2023-04-06T00:38:11;1.20;1.00
11650;DHT22;5881;48.522;7.682;2023-04-06T00:40:37;1.10;1.00
11650;DHT22;5881;48.522;7.682;2023-04-06T00:43:07;1.00;1.00
11650;DHT22;5881;48.522;7.682;2023-04-06T00:45:39;0.90;1.00
11650;DHT22;5881;48.522;7.682;2023-04-06T00:48:06;1.10;1.00
11650;DHT22;5881;48.522;7.682;2023-04-06T00:50:32;1.20;1.00
11650;DHT22;5881;48.522;7.682;2023-04-06T00:52:59;1.30;1.00
11650;DHT22;5881;48.522;7.682;2023-04-06T00:55:29;1.00;1.00
11650;DHT22;5881;48.522;7.682;2023-04-06T00:57:56;1.00;1.00
11650;DHT22;5881;48.522;7.682;2023-04-06T01:00:22;1.00;1.00
11650;DHT22;5881;48.522;7.682;2023-04-06T01:02:48;0.90;1.00
11650;DHT22;5881;48.522;7.682;2023-04-06T01:05:14;0.90;1.00
11650;DHT22;5881;48.522;7.682;2023-04-06T01:07:40;1.00;1.00
11650;DHT22;5881;48.522;7.682;2023-04-06T01:10:06;0.90;1.00
11650;DHT22;5881;48.522;7.682;2023-04-06T01:12:31;0.90;1.00
11650;DHT22;5881;48.522;7.682;2023-04-06T01:14:57;0.80;1.00
11650;DHT22;5881;48.522;7.682;2023-04-06T01:17:23;0.70;1.00
11650;DHT22;5881;48.522;7.682;2023-04-06T01:19:49;0.60;1.00
11650;DHT22;5881;48.522;7.682;2023-04-06T01:22:17;0.70;1.00
11650;DHT22;5881;48.522;7.682;2023-04-06T01:24:42;0.60;1.00
11650;DHT22;5881;48.522;7.682;2023-04-06T01:27:08;0.80;1.00
11650;DHT22;5881;48.522;7.682;2023-04-06T01:29:34;0.90;1.00
11650;DHT22;5881;48.522;7.682;2023-04-06T01:31:59;0.70;1.00
11650;DHT22;5881;48.522;7.682;2023-04-06T01:34:25;0.60;1.00
11650;DHT22;5881;48.522;7.682;2023-04-06T01:36:51;0.60;1.00
11650;DHT22;5881;48.522;7.682;2023-04-06T01:39:17;0.50;1.00
11650;DHT22;5881;48.522;7.682;2023-04-06T01:41:43;0.50;1.00
11650;DHT22;5881;48.522;7.682;2023-04-06T01:44:08;0.40;1.00
11650;DHT22;5881;48.522;7.682;2023-04-06T01:46:34;0.40;1.00
11650;DHT22;5881;48.522;7.682;2023-04-06T01:49:00;0.40;9.10
11650;DHT22;5881;48.522;7.682;2023-04-06T01:51:25;0.40;6.20
11650;DHT22;5881;48.522;7.682;2023-04-06T01:53:52;0.40;20.50
11650;DHT22;5881;48.522;7.682;2023-04-06T01:56:18;0.30;16.20
11650;DHT22;5881;48.522;7.682;2023-04-06T01:58:43;0.40;22.80
11650;DHT22;5881;48.522;7.682;2023-04-06T02:01:09;0.30;19.90
11650;DHT22;5881;48.522;7.682;2023-04-06T02:03:35;0.30;22.00
11650;DHT22;5881;48.522;7.682;2023-04-06T02:06:01;0.30;28.20
11650;DHT22;5881;48.522;7.682;2023-04-06T02:08:27;0.20;25.50
11650;DHT22;5881;48.522;7.682;2023-04-06T02:10:52;0.30;38.70
11650;DHT22;5881;48.522;7.682;2023-04-06T02:13:18;0.20;59.30
11650;DHT22;5881;48.522;7.682;2023-04-06T02:15:43;0.10;40.30
11650;DHT22;5881;48.522;7.682;2023-04-06T02:18:09;0.00;54.60
11650;DHT22;5881;48.522;7.682;2023-04-06T02:20:35;-0.10;67.40
11650;DHT22;5881;48.522;7.682;2023-04-06T02:23:01;0.00;95.10
11650;DHT22;5881;48.522;7.682;2023-04-06T02:25:26;0.00;94.40
11650;DHT22;5881;48.522;7.682;2023-04-06T02:27:53;0.00;99.10
11650;DHT22;5881;48.522;7.682;2023-04-06T02:30:19;-0.20;99.90
11650;DHT22;5881;48.522;7.682;2023-04-06T02:32:44;-0.20;99.90
11650;DHT22;5881;48.522;7.682;2023-04-06T02:35:10;-0.10;99.90
11650;DHT22;5881;48.522;7.682;2023-04-06T02:37:36;0.10;99.90
11650;DHT22;5881;48.522;7.682;2023-04-06T02:40:02;0.10;99.90
11650;DHT22;5881;48.522;7.682;2023-04-06T02:42:27;0.30;99.90
11650;DHT22;5881;48.522;7.682;2023-04-06T02:44:53;0.50;99.90
11650;DHT22;5881;48.522;7.682;2023-04-06T02:47:19;0.70;99.90
11650;DHT22;5881;48.522;7.682;2023-04-06T02:49:44;0.30;99.90
11650;DHT22;5881;48.522;7.682;2023-04-06T02:52:10;0.20;99.90
11650;DHT22;5881;48.522;7.682;2023-04-06T02:54:36;0.00;99.90
11650;DHT22;5881;48.522;7.682;2023-04-06T02:57:01;-0.10;99.90
11650;DHT22;5881;48.522;7.682;2023-04-06T02:59:27;-0.10;99.90
11650;DHT22;5881;48.522;7.682;2023-04-06T03:01:52;-0.30;99.90
11650;DHT22;5881;48.522;7.682;2023-04-06T03:04:18;-0.30;1.00
11650;DHT22;5881;48.522;7.682;2023-04-06T03:06:44;-0.30;99.90
11650;DHT22;5881;48.522;7.682;2023-04-06T03:09:10;-0.30;99.90
11650;DHT22;5881;48.522;7.682;2023-04-06T03:11:35;-0.40;99.90
11650;DHT22;5881;48.522;7.682;2023-04-06T03:14:01;-0.30;1.00
11650;DHT22;5881;48.522;7.682;2023-04-06T03:16:27;-0.40;1.00
11650;DHT22;5881;48.522;7.682;2023-04-06T03:18:52;-0.40;1.00
11650;DHT22;5881;48.522;7.682;2023-04-06T03:21:18;-0.40;1.00
11650;DHT22;5881;48.522;7.682;2023-04-06T03:23:44;-0.30;1.00
11650;DHT22;5881;48.522;7.682;2023-04-06T03:26:10;-0.40;99.20
11650;DHT22;5881;48.522;7.682;2023-04-06T03:28:36;-0.50;1.00
11650;DHT22;5881;48.522;7.682;2023-04-06T03:31:02;-0.50;66.00
11650;DHT22;5881;48.522;7.682;2023-04-06T03:33:27;-0.50;99.90
11650;DHT22;5881;48.522;7.682;2023-04-06T03:35:53;-0.40;99.90
11650;DHT22;5881;48.522;7.682;2023-04-06T03:38:19;-0.60;99.90
11650;DHT22;5881;48.522;7.682;2023-04-06T03:40:45;-0.50;99.90
11650;DHT22;5881;48.522;7.682;2023-04-06T03:43:10;-0.60;99.90
11650;DHT22;5881;48.522;7.682;2023-04-06T03:45:36;-0.60;99.90
11650;DHT22;5881;48.522;7.682;2023-04-06T03:48:03;-0.60;99.90
11650;DHT22;5881;48.522;7.682;2023-04-06T03:50:28;-0.40;43.80
11650;DHT22;5881;48.522;7.682;2023-04-06T03:52:57;-0.20;99.90
11650;DHT22;5881;48.522;7.682;2023-04-06T03:55:22;-0.10;99.90
11650;DHT22;5881;48.522;7.682;2023-04-06T03:57:48;-0.10;1.00
11650;DHT22;5881;48.522;7.682;2023-04-06T04:00:14;-0.20;99.90
11650;DHT22;5881;48.522;7.682;2023-04-06T04:02:40;-0.20;1.00
11650;DHT22;5881;48.522;7.682;2023-04-06T04:05:06;-0.20;99.90
11650;DHT22;5881;48.522;7.682;2023-04-06T04:07:31;-0.20;1.00
11650;DHT22;5881;48.522;7.682;2023-04-06T04:09:57;-0.10;99.90
11650;DHT22;5881;48.522;7.682;2023-04-06T04:12:23;-0.20;1.00
11650;DHT22;5881;48.522;7.682;2023-04-06T04:14:48;-0.40;1.00
11650;DHT22;5881;48.522;7.682;2023-04-06T04:17:14;-0.40;99.90
11650;DHT22;5881;48.522;7.682;2023-04-06T04:19:40;-0.40;99.90
11650;DHT22;5881;48.522;7.682;2023-04-06T04:22:05;-0.20;99.90
11650;DHT22;5881;48.522;7.682;2023-04-06T04:24:32;-0.20;1.00
11650;DHT22;5881;48.522;7.682;2023-04-06T04:26:58;-0.20;1.00
11650;DHT22;5881;48.522;7.682;2023-04-06T04:29:23;-0.40;99.90
11650;DHT22;5881;48.522;7.682;2023-04-06T04:31:49;-0.40;1.00
11650;DHT22;5881;48.522;7.682;2023-04-06T04:34:15;-0.60;1.00
11650;DHT22;5881;48.522;7.682;2023-04-06T04:36:41;-0.60;1.00
11650;DHT22;5881;48.522;7.682;2023-04-06T04:39:10;-0.60;99.90
11650;DHT22;5881;48.522;7.682;2023-04-06T04:41:35;-0.50;99.90
11650;DHT22;5881;48.522;7.682;2023-04-06T04:44:01;-0.60;99.90
11650;DHT22;5881;48.522;7.682;2023-04-06T04:46:26;-0.70;99.90
11650;DHT22;5881;48.522;7.682;2023-04-06T04:48:52;-0.70;1.00
11650;DHT22;5881;48.522;7.682;2023-04-06T04:51:18;-0.60;1.00
11650;DHT22;5881;48.522;7.682;2023-04-06T04:53:45;-0.70;1.00
11650;DHT22;5881;48.522;7.682;2023-04-06T04:56:10;-0.60;99.90
11650;DHT22;5881;48.522;7.682;2023-04-06T04:58:36;-0.70;1.00
11650;DHT22;5881;48.522;7.682;2023-04-06T05:01:02;-0.60;1.00
11650;DHT22;5881;48.522;7.682;2023-04-06T05:03:28;-0.50;1.00
11650;DHT22;5881;48.522;7.682;2023-04-06T05:05:53;-0.40;1.00
11650;DHT22;5881;48.522;7.682;2023-04-06T05:08:20;-0.40;99.90
11650;DHT22;5881;48.522;7.682;2023-04-06T05:10:45;-0.40;1.00
11650;DHT22;5881;48.522;7.682;2023-04-06T05:13:12;-0.20;1.00
11650;DHT22;5881;48.522;7.682;2023-04-06T05:15:37;-0.20;1.00
11650;DHT22;5881;48.522;7.682;2023-04-06T05:18:07;-0.20;1.00
11650;DHT22;5881;48.522;7.682;2023-04-06T05:20:33;0.10;99.90
11650;DHT22;5881;48.522;7.682;2023-04-06T05:22:59;-0.20;99.90
11650;DHT22;5881;48.522;7.682;2023-04-06T05:25:28;0.10;99.90
11650;DHT22;5881;48.522;7.682;2023-04-06T05:27:54;0.50;1.00
11650;DHT22;5881;48.522;7.682;2023-04-06T05:30:20;0.50;1.00
11650;DHT22;5881;48.522;7.682;2023-04-06T05:32:46;0.50;99.90
11650;DHT22;5881;48.522;7.682;2023-04-06T05:35:12;0.50;99.90
11650;DHT22;5881;48.522;7.682;2023-04-06T05:37:39;0.40;99.90
11650;DHT22;5881;48.522;7.682;2023-04-06T05:40:05;0.40;99.90
11650;DHT22;5881;48.522;7.682;2023-04-06T05:42:38;0.40;99.90
11650;DHT22;5881;48.522;7.682;2023-04-06T05:45:05;0.50;99.90
11650;DHT22;5881;48.522;7.682;2023-04-06T05:47:31;0.50;99.90
11650;DHT22;5881;48.522;7.682;2023-04-06T05:49:56;0.60;99.90
11650;DHT22;5881;48.522;7.682;2023-04-06T05:52:22;1.00;99.90
11650;DHT22;5881;48.522;7.682;2023-04-06T05:54:48;2.40;99.90
11650;DHT22;5881;48.522;7.682;2023-04-06T05:57:13;3.40;1.00
11650;DHT22;5881;48.522;7.682;2023-04-06T05:59:39;4.30;1.00
11650;DHT22;5881;48.522;7.682;2023-04-06T06:02:05;5.40;1.00
11650;DHT22;5881;48.522;7.682;2023-04-06T06:04:30;6.30;1.00
11650;DHT22;5881;48.522;7.682;2023-04-06T06:06:56;5.50;1.00
11650;DHT22;5881;48.522;7.682;2023-04-06T06:09:22;6.30;1.00
11650;DHT22;5881;48.522;7.682;2023-04-06T06:11:48;5.80;1.00
11650;DHT22;5881;48.522;7.682;2023-04-06T06:14:15;5.90;1.00
11650;DHT22;5881;48.522;7.682;2023-04-06T06:16:41;5.70;1.00
11650;DHT22;5881;48.522;7.682;2023-04-06T06:19:07;5.90;1.00
11650;DHT22;5881;48.522;7.682;2023-04-06T06:21:33;6.80;1.00
11650;DHT22;5881;48.522;7.682;2023-04-06T06:23:58;6.40;1.00
11650;DHT22;5881;48.522;7.682;2023-04-06T06:26:25;6.70;1.00
11650;DHT22;5881;48.522;7.682;2023-04-06T06:28:51;6.40;1.00
11650;DHT22;5881;48.522;7.682;2023-04-06T06:31:17;6.70;1.00
11650;DHT22;5881;48.522;7.682;2023-04-06T06:33:45;6.70;1.00
11650;DHT22;5881;48.522;7.682;2023-04-06T06:36:11;8.10;1.00
11650;DHT22;5881;48.522;7.682;2023-04-06T06:38:37;8.30;1.00
11650;DHT22;5881;48.522;7.682;2023-04-06T06:41:03;7.90;1.00
11650;DHT22;5881;48.522;7.682;2023-04-06T06:43:29;7.70;1.00
11650;DHT22;5881;48.522;7.682;2023-04-06T06:45:55;8.20;1.00
11650;DHT22;5881;48.522;7.682;2023-04-06T06:48:20;8.90;1.00
11650;DHT22;5881;48.522;7.682;2023-04-06T06:50:47;9.10;1.00
11650;DHT22;5881;48.522;7.682;2023-04-06T06:53:13;9.90;1.00
11650;DHT22;5881;48.522;7.682;2023-04-06T06:55:40;10.50;1.00
11650;DHT22;5881;48.522;7.682;2023-04-06T06:58:06;10.10;1.00
11650;DHT22;5881;48.522;7.682;2023-04-06T07:00:32;10.60;1.00
11650;DHT22;5881;48.522;7.682;2023-04-06T07:02:57;9.50;1.00
11650;DHT22;5881;48.522;7.682;2023-04-06T07:05:23;8.90;1.00
11650;DHT22;5881;48.522;7.682;2023-04-06T07:07:49;9.10;1.00
11650;DHT22;5881;48.522;7.682;2023-04-06T07:10:15;9.20;1.00
11650;DHT22;5881;48.522;7.682;2023-04-06T07:12:40;9.80;1.00
11650;DHT22;5881;48.522;7.682;2023-04-06T07:15:06;10.50;1.00
11650;DHT22;5881;48.522;7.682;2023-04-06T07:17:32;10.90;1.00
11650;DHT22;5881;48.522;7.682;2023-04-06T07:19:58;11.00;1.00
11650;DHT22;5881;48.522;7.682;2023-04-06T07:22:23;11.20;1.00
11650;DHT22;5881;48.522;7.682;2023-04-06T07:24:49;10.80;1.00
11650;DHT22;5881;48.522;7.682;2023-04-06T07:27:15;11.00;1.00
11650;DHT22;5881;48.522;7.682;2023-04-06T07:29:41;10.50;1.00
11650;DHT22;5881;48.522;7.682;2023-04-06T07:32:08;11.10;1.00
11650;DHT22;5881;48.522;7.682;2023-04-06T07:34:33;12.10;1.00
11650;DHT22;5881;48.522;7.682;2023-04-06T07:36:59;10.90;1.00
11650;DHT22;5881;48.522;7.682;2023-04-06T07:39:27;11.80;1.00
11650;DHT22;5881;48.522;7.682;2023-04-06T07:41:53;12.30;1.00
11650;DHT22;5881;48.522;7.682;2023-04-06T07:44:19;12.40;1.00
11650;DHT22;5881;48.522;7.682;2023-04-06T07:46:45;11.80;1.00
11650;DHT22;5881;48.522;7.682;2023-04-06T07:49:10;12.40;1.00
11650;DHT22;5881;48.522;7.682;2023-04-06T07:51:38;12.70;1.00
11650;DHT22;5881;48.522;7.682;2023-04-06T07:54:03;12.90;1.00
11650;DHT22;5881;48.522;7.682;2023-04-06T07:56:29;12.60;1.00
11650;DHT22;5881;48.522;7.682;2023-04-06T07:58:55;11.80;1.00
11650;DHT22;5881;48.522;7.682;2023-04-06T08:01:22;13.00;1.00
11650;DHT22;5881;48.522;7.682;2023-04-06T08:03:48;13.80;1.00
11650;DHT22;5881;48.522;7.682;2023-04-06T08:06:14;13.20;1.00
11650;DHT22;5881;48.522;7.682;2023-04-06T08:08:40;12.50;1.00
11650;DHT22;5881;48.522;7.682;2023-04-06T08:11:06;10.90;1.00
11650;DHT22;5881;48.522;7.682;2023-04-06T08:13:32;11.00;1.00
11650;DHT22;5881;48.522;7.682;2023-04-06T08:15:58;11.70;1.00
11650;DHT22;5881;48.522;7.682;2023-04-06T08:18:24;11.00;1.00
11650;DHT22;5881;48.522;7.682;2023-04-06T08:20:50;10.80;1.00
11650;DHT22;5881;48.522;7.682;2023-04-06T08:23:16;11.40;1.00
11650;DHT22;5881;48.522;7.682;2023-04-06T08:25:42;11.70;1.00
11650;DHT22;5881;48.522;7.682;2023-04-06T08:28:07;10.70;1.00
11650;DHT22;5881;48.522;7.682;2023-04-06T08:30:35;11.00;1.00
11650;DHT22;5881;48.522;7.682;2023-04-06T08:33:00;10.70;1.00
11650;DHT22;5881;48.522;7.682;2023-04-06T08:35:27;10.90;1.00
11650;DHT22;5881;48.522;7.682;2023-04-06T08:37:53;11.20;1.00
11650;DHT22;5881;48.522;7.682;2023-04-06T08:40:18;12.50;1.00
11650;DHT22;5881;48.522;7.682;2023-04-06T08:42:49;15.00;1.00
11650;DHT22;5881;48.522;7.682;2023-04-06T08:45:16;14.50;1.00
11650;DHT22;5881;48.522;7.682;2023-04-06T08:47:43;15.00;1.00
11650;DHT22;5881;48.522;7.682;2023-04-06T08:50:10;15.20;1.00
11650;DHT22;5881;48.522;7.682;2023-04-06T08:52:39;16.40;1.00
11650;DHT22;5881;48.522;7.682;2023-04-06T08:55:06;15.70;1.00
11650;DHT22;5881;48.522;7.682;2023-04-06T08:57:33;14.90;1.00
11650;DHT22;5881;48.522;7.682;2023-04-06T09:00:01;16.60;1.00
11650;DHT22;5881;48.522;7.682;2023-04-06T09:02:27;17.60;1.00
11650;DHT22;5881;48.522;7.682;2023-04-06T09:04:54;16.80;1.00
11650;DHT22;5881;48.522;7.682;2023-04-06T09:07:20;15.70;1.00
11650;DHT22;5881;48.522;7.682;2023-04-06T09:09:46;17.30;1.00
11650;DHT22;5881;48.522;7.682;2023-04-06T09:12:30;17.20;1.00
11650;DHT22;5881;48.522;7.682;2023-04-06T09:14:57;17.80;1.00
11650;DHT22;5881;48.522;7.682;2023-04-06T09:17:28;17.10;1.00
11650;DHT22;5881;48.522;7.682;2023-04-06T09:19:55;18.60;1.00
11650;DHT22;5881;48.522;7.682;2023-04-06T09:22:21;17.40;1.00
11650;DHT22;5881;48.522;7.682;2023-04-06T09:24:51;17.70;1.00
11650;DHT22;5881;48.522;7.682;2023-04-06T09:27:17;18.20;1.00
11650;DHT22;5881;48.522;7.682;2023-04-06T09:29:44;18.90;1.00
11650;DHT22;5881;48.522;7.682;2023-04-06T09:32:10;19.00;1.00
11650;DHT22;5881;48.522;7.682;2023-04-06T09:34:39;17.60;1.00
11650;DHT22;5881;48.522;7.682;2023-04-06T09:37:15;15.90;1.00
11650;DHT22;5881;48.522;7.682;2023-04-06T09:39:41;17.10;1.00
11650;DHT22;5881;48.522;7.682;2023-04-06T09:42:06;16.40;1.00
11650;DHT22;5881;48.522;7.682;2023-04-06T09:44:32;17.00;1.00
11650;DHT22;5881;48.522;7.682;2023-04-06T09:46:58;17.10;1.00
11650;DHT22;5881;48.522;7.682;2023-04-06T09:49:26;17.20;1.00
11650;DHT22;5881;48.522;7.682;2023-04-06T09:52:12;17.40;1.00
11650;DHT22;5881;48.522;7.682;2023-04-06T09:54:40;16.90;1.00
11650;DHT22;5881;48.522;7.682;2023-04-06T10:02:41;15.80;1.00
11650;DHT22;5881;48.522;7.682;2023-04-06T10:05:15;15.90;1.00
11650;DHT22;5881;48.522;7.682;2023-04-06T10:07:42;15.80;1.00
11650;DHT22;5881;48.522;7.682;2023-04-06T10:10:10;15.60;1.00
11650;DHT22;5881;48.522;7.682;2023-04-06T10:12:38;15.90;1.00
11650;DHT22;5881;48.522;7.682;2023-04-06T10:15:05;16.30;1.00
11650;DHT22;5881;48.522;7.682;2023-04-06T10:17:31;16.50;1.00
11650;DHT22;5881;48.522;7.682;2023-04-06T10:20:07;16.90;1.00
11650;DHT22;5881;48.522;7.682;2023-04-06T10:25:29;16.90;1.00
11650;DHT22;5881;48.522;7.682;2023-04-06T10:28:08;17.50;1.00
11650;DHT22;5881;48.522;7.682;2023-04-06T10:30:35;18.00;1.00
11650;DHT22;5881;48.522;7.682;2023-04-06T10:33:13;18.50;1.00
11650;DHT22;5881;48.522;7.682;2023-04-06T10:35:39;18.20;1.00
11650;DHT22;5881;48.522;7.682;2023-04-06T10:38:05;19.00;1.00
11650;DHT22;5881;48.522;7.682;2023-04-06T10:40:31;18.60;1.00
11650;DHT22;5881;48.522;7.682;2023-04-06T10:43:09;18.30;1.00
11650;DHT22;5881;48.522;7.682;2023-04-06T10:45:35;17.70;1.00
11650;DHT22;5881;48.522;7.682;2023-04-06T10:48:04;17.60;1.00
11650;DHT22;5881;48.522;7.682;2023-04-06T10:50:38;18.30;1.00
11650;DHT22;5881;48.522;7.682;2023-04-06T10:53:05;18.20;1.00
11650;DHT22;5881;48.522;7.682;2023-04-06T10:55:31;17.30;1.00
11650;DHT22;5881;48.522;7.682;2023-04-06T10:57:57;17.30;1.00
11650;DHT22;5881;48.522;7.682;2023-04-06T11:00:23;17.20;1.00
11650;DHT22;5881;48.522;7.682;2023-04-06T11:02:49;16.70;1.00
11650;DHT22;5881;48.522;7.682;2023-04-06T11:05:15;16.10;1.00
11650;DHT22;5881;48.522;7.682;2023-04-06T11:07:41;17.30;1.00
11650;DHT22;5881;48.522;7.682;2023-04-06T11:10:10;17.30;1.00
11650;DHT22;5881;48.522;7.682;2023-04-06T11:12:35;16.60;1.00
11650;DHT22;5881;48.522;7.682;2023-04-06T11:15:02;17.00;1.00
11650;DHT22;5881;48.522;7.682;2023-04-06T11:17:36;17.30;1.00
11650;DHT22;5881;48.522;7.682;2023-04-06T11:20:03;17.40;1.00
11650;DHT22;5881;48.522;7.682;2023-04-06T11:22:31;17.20;1.00
11650;DHT22;5881;48.522;7.682;2023-04-06T11:25:07;17.00;1.00
11650;DHT22;5881;48.522;7.682;2023-04-06T11:27:36;16.70;1.00
11650;DHT22;5881;48.522;7.682;2023-04-06T11:30:04;16.90;1.00
11650;DHT22;5881;48.522;7.682;2023-04-06T11:32:39;16.70;1.00
11650;DHT22;5881;48.522;7.682;2023-04-06T11:35:06;16.10;1.00
11650;DHT22;5881;48.522;7.682;2023-04-06T11:37:32;17.20;1.00
11650;DHT22;5881;48.522;7.682;2023-04-06T11:39:58;16.30;1.00
11650;DHT22;5881;48.522;7.682;2023-04-06T11:42:26;16.30;1.00
11650;DHT22;5881;48.522;7.682;2023-04-06T11:44:54;16.70;1.00
11650;DHT22;5881;48.522;7.682;2023-04-06T11:47:33;16.60;1.00
11650;DHT22;5881;48.522;7.682;2023-04-06T11:50:09;17.40;1.00
11650;DHT22;5881;48.522;7.682;2023-04-06T11:52:35;17.00;1.00
11650;DHT22;5881;48.522;7.682;2023-04-06T11:55:16;17.00;1.00
11650;DHT22;5881;48.522;7.682;2023-04-06T11:57:42;17.70;1.00
11650;DHT22;5881;48.522;7.682;2023-04-06T12:00:09;17.40;1.00
11650;DHT22;5881;48.522;7.682;2023-04-06T12:02:36;17.20;1.00
11650;DHT22;5881;48.522;7.682;2023-04-06T12:05:03;17.10;1.00
11650;DHT22;5881;48.522;7.682;2023-04-06T12:07:29;16.70;1.00
11650;DHT22;5881;48.522;7.682;2023-04-06T12:09:55;16.80;1.00
11650;DHT22;5881;48.522;7.682;2023-04-06T12:12:21;16.70;1.00
11650;DHT22;5881;48.522;7.682;2023-04-06T12:14:47;16.70;1.00
11650;DHT22;5881;48.522;7.682;2023-04-06T12:17:12;16.50;1.00
11650;DHT22;5881;48.522;7.682;2023-04-06T12:19:38;17.00;1.00
11650;DHT22;5881;48.522;7.682;2023-04-06T12:22:04;16.60;1.00
11650;DHT22;5881;48.522;7.682;2023-04-06T12:24:29;15.90;1.00
11650;DHT22;5881;48.522;7.682;2023-04-06T12:26:55;16.00;1.00
11650;DHT22;5881;48.522;7.682;2023-04-06T12:29:21;15.70;1.00
11650;DHT22;5881;48.522;7.682;2023-04-06T12:31:46;15.70;1.00
11650;DHT22;5881;48.522;7.682;2023-04-06T12:34:12;15.80;1.00
11650;DHT22;5881;48.522;7.682;2023-04-06T12:36:38;15.70;1.00
11650;DHT22;5881;48.522;7.682;2023-04-06T12:39:04;15.50;1.00
11650;DHT22;5881;48.522;7.682;2023-04-06T12:41:30;15.20;1.00
11650;DHT22;5881;48.522;7.682;2023-04-06T12:43:57;16.00;1.00
11650;DHT22;5881;48.522;7.682;2023-04-06T12:46:24;16.00;1.00
11650;DHT22;5881;48.522;7.682;2023-04-06T12:48:51;15.90;1.00
11650;DHT22;5881;48.522;7.682;2023-04-06T12:51:19;15.70;1.00
11650;DHT22;5881;48.522;7.682;2023-04-06T12:53:45;15.40;1.00
11650;DHT22;5881;48.522;7.682;2023-04-06T12:56:15;16.00;1.00
11650;DHT22;5881;48.522;7.682;2023-04-06T12:58:42;15.80;1.00
11650;DHT22;5881;48.522;7.682;2023-04-06T13:01:09;15.80;1.00
11650;DHT22;5881;48.522;7.682;2023-04-06T13:03:35;15.70;1.00
11650;DHT22;5881;48.522;7.682;2023-04-06T13:06:01;16.10;1.00
11650;DHT22;5881;48.522;7.682;2023-04-06T13:08:27;15.90;1.00
11650;DHT22;5881;48.522;7.682;2023-04-06T13:10:53;15.90;1.00
11650;DHT22;5881;48.522;7.682;2023-04-06T13:13:23;15.80;1.00
11650;DHT22;5881;48.522;7.682;2023-04-06T13:15:50;15.60;1.00
11650;DHT22;5881;48.522;7.682;2023-04-06T13:18:16;15.80;1.00
11650;DHT22;5881;48.522;7.682;2023-04-06T13:20:42;15.30;1.00
11650;DHT22;5881;48.522;7.682;2023-04-06T13:23:08;15.50;1.00
11650;DHT22;5881;48.522;7.682;2023-04-06T13:25:34;15.70;1.00
11650;DHT22;5881;48.522;7.682;2023-04-06T13:28:00;16.10;1.00
11650;DHT22;5881;48.522;7.682;2023-04-06T13:30:25;16.20;1.00
11650;DHT22;5881;48.522;7.682;2023-04-06T13:32:51;16.40;1.00
11650;DHT22;5881;48.522;7.682;2023-04-06T13:35:17;16.00;1.00
11650;DHT22;5881;48.522;7.682;2023-04-06T13:37:43;16.00;1.00
11650;DHT22;5881;48.522;7.682;2023-04-06T13:40:10;15.60;1.00
11650;DHT22;5881;48.522;7.682;2023-04-06T13:42:36;15.60;1.00
11650;DHT22;5881;48.522;7.682;2023-04-06T13:45:04;15.80;1.00
11650;DHT22;5881;48.522;7.682;2023-04-06T13:47:29;15.80;1.00
11650;DHT22;5881;48.522;7.682;2023-04-06T13:50:16;15.50;1.00
11650;DHT22;5881;48.522;7.682;2023-04-06T13:52:47;15.30;1.00
11650;DHT22;5881;48.522;7.682;2023-04-06T13:55:12;15.00;1.00
11650;DHT22;5881;48.522;7.682;2023-04-06T13:57:38;14.80;1.00
11650;DHT22;5881;48.522;7.682;2023-04-06T14:00:04;14.90;1.00
11650;DHT22;5881;48.522;7.682;2023-04-06T14:02:30;14.70;1.00
11650;DHT22;5881;48.522;7.682;2023-04-06T14:04:56;14.70;1.00
11650;DHT22;5881;48.522;7.682;2023-04-06T14:07:21;14.50;1.00
11650;DHT22;5881;48.522;7.682;2023-04-06T14:09:47;14.60;1.00
11650;DHT22;5881;48.522;7.682;2023-04-06T14:12:13;14.70;1.00
11650;DHT22;5881;48.522;7.682;2023-04-06T14:14:38;14.70;1.00
11650;DHT22;5881;48.522;7.682;2023-04-06T14:17:04;14.50;1.00
11650;DHT22;5881;48.522;7.682;2023-04-06T14:19:29;14.80;1.00
11650;DHT22;5881;48.522;7.682;2023-04-06T14:21:55;14.80;1.00
11650;DHT22;5881;48.522;7.682;2023-04-06T14:24:21;14.80;1.00
11650;DHT22;5881;48.522;7.682;2023-04-06T14:26:47;14.50;1.00
11650;DHT22;5881;48.522;7.682;2023-04-06T14:29:13;14.60;1.00
11650;DHT22;5881;48.522;7.682;2023-04-06T14:31:39;14.70;1.00
11650;DHT22;5881;48.522;7.682;2023-04-06T14:34:04;14.60;1.00
11650;DHT22;5881;48.522;7.682;2023-04-06T14:36:32;14.30;1.00
11650;DHT22;5881;48.522;7.682;2023-04-06T14:39:06;13.80;1.00
11650;DHT22;5881;48.522;7.682;2023-04-06T14:41:32;13.90;1.00
11650;DHT22;5881;48.522;7.682;2023-04-06T14:43:57;14.20;1.00
11650;DHT22;5881;48.522;7.682;2023-04-06T14:46:23;14.00;1.00
11650;DHT22;5881;48.522;7.682;2023-04-06T14:48:49;14.30;1.00
11650;DHT22;5881;48.522;7.682;2023-04-06T14:51:15;14.40;1.00
11650;DHT22;5881;48.522;7.682;2023-04-06T14:53:40;14.40;1.00
11650;DHT22;5881;48.522;7.682;2023-04-06T14:56:06;14.00;1.00
11650;DHT22;5881;48.522;7.682;2023-04-06T14:58:32;13.90;1.00
11650;DHT22;5881;48.522;7.682;2023-04-06T15:00:58;13.80;1.00
11650;DHT22;5881;48.522;7.682;2023-04-06T15:03:29;14.00;1.00
11650;DHT22;5881;48.522;7.682;2023-04-06T15:05:55;13.90;1.00
11650;DHT22;5881;48.522;7.682;2023-04-06T15:08:22;13.80;1.00
11650;DHT22;5881;48.522;7.682;2023-04-06T15:10:49;13.90;1.00
11650;DHT22;5881;48.522;7.682;2023-04-06T15:13:15;14.00;1.00
11650;DHT22;5881;48.522;7.682;2023-04-06T15:15:41;13.70;1.00
11650;DHT22;5881;48.522;7.682;2023-04-06T15:18:07;13.80;1.00
11650;DHT22;5881;48.522;7.682;2023-04-06T15:20:33;13.60;1.00
11650;DHT22;5881;48.522;7.682;2023-04-06T15:22:58;13.60;1.00
11650;DHT22;5881;48.522;7.682;2023-04-06T15:25:24;13.60;1.00
11650;DHT22;5881;48.522;7.682;2023-04-06T15:27:50;13.60;1.00
11650;DHT22;5881;48.522;7.682;2023-04-06T15:30:16;13.30;1.00
11650;DHT22;5881;48.522;7.682;2023-04-06T15:33:03;13.20;1.00
11650;DHT22;5881;48.522;7.682;2023-04-06T15:35:29;13.30;1.00
11650;DHT22;5881;48.522;7.682;2023-04-06T15:37:58;13.30;1.00
11650;DHT22;5881;48.522;7.682;2023-04-06T15:40:24;13.20;1.00
11650;DHT22;5881;48.522;7.682;2023-04-06T15:42:50;13.20;1.00
11650;DHT22;5881;48.522;7.682;2023-04-06T15:45:16;13.20;1.00
11650;DHT22;5881;48.522;7.682;2023-04-06T15:47:42;13.20;1.00
11650;DHT22;5881;48.522;7.682;2023-04-06T15:50:09;13.20;1.00
11650;DHT22;5881;48.522;7.682;2023-04-06T15:52:35;13.10;1.00
11650;DHT22;5881;48.522;7.682;2023-04-06T15:55:03;13.00;1.00
11650;DHT22;5881;48.522;7.682;2023-04-06T15:57:29;12.80;1.00
11650;DHT22;5881;48.522;7.682;2023-04-06T15:59:54;12.80;1.00
11650;DHT22;5881;48.522;7.682;2023-04-06T16:02:21;12.70;1.00
11650;DHT22;5881;48.522;7.682;2023-04-06T16:04:54;12.80;1.00
11650;DHT22;5881;48.522;7.682;2023-04-06T16:07:19;12.90;1.00